createdAt,value
2023-03-13T00:00:24.783Z,5.55
2023-03-13T00:01:27.805Z,5.18
2023-03-13T00:02:09.700Z,6.32
2023-03-13T00:02:51.356Z,7.63
2023-03-13T00:03:32.934Z,4.65
2023-03-13T00:04:14.740Z,9.43
2023-03-13T00:04:56.466Z,6.07
2023-03-13T00:05:38.141Z,5.65
2023-03-13T00:06:19.783Z,6.10
2023-03-13T00:07:01.409Z,4.90
2023-03-13T00:07:42.985Z,5.57
2023-03-13T00:08:30.877Z,6.30
2023-03-13T00:09:15.482Z,7.10
2023-03-13T00:09:57.097Z,4.35
2023-03-13T00:10:39.822Z,6.55
2023-03-13T00:11:21.399Z,5.28
2023-03-13T00:12:03.166Z,5.88
2023-03-13T00:12:44.817Z,5.93
2023-03-13T00:13:26.638Z,6.53
2023-03-13T00:14:08.283Z,8.50
2023-03-13T00:14:49.906Z,7.53
2023-03-13T00:15:31.556Z,7.38
2023-03-13T00:16:15.534Z,8.25
2023-03-13T00:16:57.343Z,6.45
2023-03-13T00:17:39.065Z,6.72
2023-03-13T00:18:20.680Z,4.35
2023-03-13T00:19:02.486Z,4.05
2023-03-13T00:19:44.087Z,6.97
2023-03-13T00:20:25.763Z,6.20
2023-03-13T00:21:09.103Z,5.20
2023-03-13T00:21:50.668Z,5.90
2023-03-13T00:22:32.256Z,6.70
2023-03-13T00:23:13.899Z,7.15
2023-03-13T00:23:56.344Z,5.45
2023-03-13T00:24:38.015Z,4.82
2023-03-13T00:25:19.667Z,6.25
2023-03-13T00:26:07.297Z,6.47
2023-03-13T00:26:48.928Z,7.95
2023-03-13T00:27:34.597Z,6.18
2023-03-13T00:28:16.201Z,7.60
2023-03-13T00:28:57.824Z,5.93
2023-03-13T00:29:40.081Z,4.60
2023-03-13T00:30:21.885Z,7.32
2023-03-13T00:31:10.133Z,6.35
2023-03-13T00:31:51.813Z,3.72
2023-03-13T00:32:33.470Z,5.22
2023-03-13T00:33:15.044Z,7.60
2023-03-13T00:34:03.945Z,5.07
2023-03-13T00:34:45.558Z,7.53
2023-03-13T00:35:27.524Z,7.85
2023-03-13T00:36:20.251Z,7.82
2023-03-13T00:37:02.028Z,7.82
2023-03-13T00:37:43.695Z,2.75
2023-03-13T00:38:25.376Z,4.55
2023-03-13T00:39:07.386Z,3.13
2023-03-13T00:39:51.856Z,4.30
2023-03-13T00:40:33.521Z,4.78
2023-03-13T00:41:18.386Z,4.45
2023-03-13T00:42:03.734Z,5.03
2023-03-13T00:42:45.311Z,7.75
2023-03-13T00:43:26.922Z,4.43
2023-03-13T00:44:08.498Z,5.07
2023-03-13T00:44:50.143Z,4.10
2023-03-13T00:45:31.722Z,5.50
2023-03-13T00:46:16.180Z,6.22
2023-03-13T00:46:57.811Z,6.85
2023-03-13T00:47:39.474Z,3.40
2023-03-13T00:48:21.537Z,5.05
2023-03-13T00:49:03.772Z,6.05
2023-03-13T00:49:45.334Z,5.18
2023-03-13T00:50:27.856Z,5.18
2023-03-13T00:51:10.629Z,5.30
2023-03-13T00:51:52.267Z,6.38
2023-03-13T00:52:33.854Z,3.55
2023-03-13T00:53:16.122Z,4.35
2023-03-13T00:54:03.883Z,5.28
2023-03-13T00:54:45.619Z,4.78
2023-03-13T00:55:27.278Z,5.60
2023-03-13T00:56:11.580Z,6.00
2023-03-13T00:56:53.370Z,3.75
2023-03-13T00:57:37.440Z,4.45
2023-03-13T00:58:19.408Z,5.80
2023-03-13T00:59:01.672Z,5.38
2023-03-13T00:59:43.339Z,5.65
2023-03-13T01:00:25.086Z,5.80
2023-03-13T01:01:27.795Z,4.30
2023-03-13T01:02:09.554Z,5.68
2023-03-13T01:02:51.254Z,4.00
2023-03-13T01:03:32.916Z,5.32
2023-03-13T01:04:16.478Z,4.60
2023-03-13T01:05:00.081Z,4.32
2023-03-13T01:05:41.946Z,8.70
2023-03-13T01:06:26.336Z,4.00
2023-03-13T01:07:07.968Z,4.97
2023-03-13T01:07:51.102Z,7.32
2023-03-13T01:08:32.944Z,5.60
2023-03-13T01:09:15.712Z,6.68
2023-03-13T01:09:57.342Z,6.15
2023-03-13T01:10:38.988Z,4.15
2023-03-13T01:11:26.478Z,4.65
2023-03-13T01:12:08.587Z,5.13
2023-03-13T01:12:51.424Z,5.78
2023-03-13T01:13:33.366Z,3.58
2023-03-13T01:14:18.245Z,5.10
2023-03-13T01:15:00.937Z,8.23
2023-03-13T01:15:42.637Z,6.80
2023-03-13T01:16:25.921Z,8.13
2023-03-13T01:17:07.578Z,6.00
2023-03-13T01:17:49.217Z,5.40
2023-03-13T01:18:30.895Z,4.43
2023-03-13T01:19:14.519Z,3.75
2023-03-13T01:19:58.805Z,6.57
2023-03-13T01:20:40.960Z,5.63
2023-03-13T01:21:24.350Z,4.20
2023-03-13T01:22:05.971Z,4.38
2023-03-13T01:22:47.621Z,3.85
2023-03-13T01:23:29.387Z,3.35
2023-03-13T01:24:11.186Z,4.75
2023-03-13T01:24:53.868Z,5.57
2023-03-13T01:25:39.982Z,6.43
2023-03-13T01:26:22.657Z,4.60
2023-03-13T01:27:04.288Z,6.68
2023-03-13T01:27:45.909Z,6.13
2023-03-13T01:28:27.840Z,5.88
2023-03-13T01:29:09.546Z,5.55
2023-03-13T01:29:51.275Z,4.88
2023-03-13T01:30:33.108Z,5.05
2023-03-13T01:31:21.533Z,5.20
2023-03-13T01:32:03.186Z,5.05
2023-03-13T01:32:44.951Z,6.35
2023-03-13T01:33:26.855Z,5.80
2023-03-13T01:34:10.614Z,4.95
2023-03-13T01:34:52.253Z,3.97
2023-03-13T01:35:33.860Z,7.32
2023-03-13T01:36:16.042Z,5.68
2023-03-13T01:36:58.012Z,5.07
2023-03-13T01:37:39.716Z,6.82
2023-03-13T01:38:21.524Z,3.92
2023-03-13T01:39:04.924Z,4.25
2023-03-13T01:39:46.573Z,4.93
2023-03-13T01:40:28.247Z,3.72
2023-03-13T01:41:12.682Z,6.18
2023-03-13T01:41:54.337Z,5.72
2023-03-13T01:42:51.940Z,5.00
2023-03-13T01:43:35.952Z,5.53
2023-03-13T01:44:26.091Z,5.82
2023-03-13T01:45:47.518Z,5.10
2023-03-13T01:46:30.363Z,5.55
2023-03-13T01:47:30.654Z,6.65
2023-03-13T01:48:54.302Z,5.28
2023-03-13T01:49:36.286Z,4.13
2023-03-13T01:50:28.403Z,6.35
2023-03-13T01:51:28.850Z,4.45
2023-03-13T01:52:23.582Z,5.47
2023-03-13T01:53:09.489Z,4.30
2023-03-13T01:54:20.997Z,4.13
2023-03-13T01:55:15.543Z,5.55
2023-03-13T01:56:02.133Z,6.03
2023-03-13T01:56:51.804Z,7.95
2023-03-13T01:57:37.805Z,5.15
2023-03-13T01:58:19.953Z,4.53
2023-03-13T01:59:03.923Z,4.85
2023-03-13T02:00:01.693Z,7.32
2023-03-13T02:00:45.100Z,5.65
2023-03-13T02:01:27.777Z,6.07
2023-03-13T02:02:09.750Z,4.80
2023-03-13T02:02:55.440Z,5.78
2023-03-13T02:03:37.857Z,4.53
2023-03-13T02:04:21.945Z,5.25
2023-03-13T02:05:06.806Z,4.43
2023-03-13T02:05:51.040Z,5.00
2023-03-13T02:06:38.145Z,5.75
2023-03-13T02:07:26.597Z,5.07
2023-03-13T02:08:20.308Z,4.28
2023-03-13T02:09:05.576Z,7.35
2023-03-13T02:09:52.659Z,7.97
2023-03-13T02:10:41.289Z,6.20
2023-03-13T02:11:45.941Z,5.95
2023-03-13T02:12:39.971Z,9.35
2023-03-13T02:13:22.086Z,4.53
2023-03-13T02:14:04.816Z,8.50
2023-03-13T02:14:49.448Z,5.95
2023-03-13T02:15:31.437Z,6.00
2023-03-13T02:16:13.499Z,5.70
2023-03-13T02:16:55.596Z,6.07
2023-03-13T02:17:39.621Z,4.82
2023-03-13T02:18:21.294Z,5.80
2023-03-13T02:19:14.600Z,8.32
2023-03-13T02:19:56.316Z,3.45
2023-03-13T02:20:39.769Z,4.97
2023-03-13T02:21:38.275Z,5.32
2023-03-13T02:22:38.548Z,5.70
2023-03-13T02:23:33.275Z,6.53
2023-03-13T02:24:44.041Z,5.97
2023-03-13T02:25:38.545Z,8.45
2023-03-13T02:26:20.378Z,9.32
2023-03-13T02:27:03.403Z,6.30
2023-03-13T02:27:48.268Z,6.38
2023-03-13T02:28:33.776Z,6.55
2023-03-13T02:29:18.410Z,8.05
2023-03-13T02:30:00.517Z,7.00
2023-03-13T02:30:44.909Z,3.88
2023-03-13T02:31:27.397Z,6.30
2023-03-13T02:32:09.625Z,6.47
2023-03-13T02:32:51.786Z,6.38
2023-03-13T02:33:38.401Z,8.07
2023-03-13T02:34:24.534Z,5.72
2023-03-13T02:35:13.266Z,7.18
2023-03-13T02:35:55.552Z,4.38
2023-03-13T02:36:37.337Z,6.13
2023-03-13T02:37:20.760Z,6.32
2023-03-13T02:38:08.282Z,6.25
2023-03-13T02:38:57.712Z,6.45
2023-03-13T02:39:45.898Z,5.75
2023-03-13T02:40:49.057Z,6.10
2023-03-13T02:41:32.560Z,7.00
2023-03-13T02:42:17.463Z,4.18
2023-03-13T02:43:02.532Z,5.53
2023-03-13T02:43:44.217Z,5.97
2023-03-13T02:44:26.027Z,3.25
2023-03-13T02:45:08.381Z,6.03
2023-03-13T02:46:03.248Z,5.65
2023-03-13T02:46:48.538Z,6.47
2023-03-13T02:47:30.441Z,6.70
2023-03-13T02:48:12.058Z,5.07
2023-03-13T02:48:56.623Z,4.65
2023-03-13T02:49:39.842Z,6.30
2023-03-13T02:50:21.798Z,7.22
2023-03-13T02:51:10.686Z,5.50
2023-03-13T02:51:54.640Z,6.05
2023-03-13T02:52:39.760Z,5.93
2023-03-13T02:53:21.427Z,6.82
2023-03-13T02:54:09.119Z,6.30
2023-03-13T02:54:55.961Z,6.28
2023-03-13T02:55:41.222Z,6.05
2023-03-13T02:56:26.992Z,6.13
2023-03-13T02:57:09.708Z,5.97
2023-03-13T02:57:51.391Z,9.30
2023-03-13T02:58:49.259Z,6.20
2023-03-13T02:59:32.797Z,5.43
2023-03-13T03:00:17.298Z,11.02
2023-03-13T03:01:07.650Z,5.65
2023-03-13T03:01:52.726Z,4.60
2023-03-13T03:02:34.400Z,5.65
2023-03-13T03:03:16.010Z,7.47
2023-03-13T03:03:57.708Z,4.43
2023-03-13T03:04:39.685Z,5.30
2023-03-13T03:05:22.207Z,5.57
2023-03-13T03:06:06.919Z,4.18
2023-03-13T03:06:50.799Z,6.00
2023-03-13T03:07:32.823Z,5.07
2023-03-13T03:08:14.436Z,4.95
2023-03-13T03:08:56.059Z,8.15
2023-03-13T03:09:38.438Z,6.32
2023-03-13T03:10:25.257Z,4.63
2023-03-13T03:11:07.952Z,5.25
2023-03-13T03:11:50.124Z,6.30
2023-03-13T03:12:32.148Z,4.78
2023-03-13T03:13:14.191Z,7.82
2023-03-13T03:13:55.916Z,7.40
2023-03-13T03:14:38.502Z,8.82
2023-03-13T03:15:20.659Z,6.55
2023-03-13T03:16:12.132Z,7.90
2023-03-13T03:16:53.770Z,5.43
2023-03-13T03:17:35.615Z,4.32
2023-03-13T03:18:17.306Z,7.00
2023-03-13T03:18:58.930Z,4.22
2023-03-13T03:19:40.552Z,7.18
2023-03-13T03:20:24.848Z,8.50
2023-03-13T03:21:07.117Z,5.15
2023-03-13T03:21:53.137Z,5.82
2023-03-13T03:22:35.067Z,5.75
2023-03-13T03:23:16.684Z,5.88
2023-03-13T03:23:58.685Z,5.28
2023-03-13T03:24:40.324Z,4.60
2023-03-13T03:25:21.936Z,4.78
2023-03-13T03:26:05.387Z,5.43
2023-03-13T03:26:47.517Z,6.88
2023-03-13T03:27:37.763Z,3.45
2023-03-13T03:28:22.295Z,5.63
2023-03-13T03:29:04.187Z,5.60
2023-03-13T03:29:45.843Z,8.52
2023-03-13T03:30:27.449Z,4.07
2023-03-13T03:31:11.749Z,9.18
2023-03-13T03:31:54.121Z,4.53
2023-03-13T03:32:36.177Z,6.82
2023-03-13T03:33:17.800Z,5.80
2023-03-13T03:33:59.889Z,4.18
2023-03-13T03:34:43.072Z,5.63
2023-03-13T03:35:24.817Z,5.55
2023-03-13T03:36:10.185Z,4.82
2023-03-13T03:36:51.855Z,3.90
2023-03-13T03:37:33.433Z,7.35
2023-03-13T03:38:16.895Z,6.03
2023-03-13T03:38:59.110Z,4.80
2023-03-13T03:39:41.644Z,6.82
2023-03-13T03:40:23.407Z,5.97
2023-03-13T03:41:06.024Z,4.22
2023-03-13T03:41:48.402Z,4.75
2023-03-13T03:42:30.088Z,3.72
2023-03-13T03:43:11.662Z,6.13
2023-03-13T03:43:53.318Z,3.30
2023-03-13T03:44:38.611Z,4.15
2023-03-13T03:45:20.745Z,5.43
2023-03-13T03:46:03.740Z,5.75
2023-03-13T03:46:45.552Z,5.55
2023-03-13T03:47:27.325Z,5.80
2023-03-13T03:48:08.942Z,4.60
2023-03-13T03:48:50.624Z,5.28
2023-03-13T03:49:32.273Z,3.60
2023-03-13T03:50:13.918Z,4.68
2023-03-13T03:51:05.976Z,6.03
2023-03-13T03:51:50.296Z,6.25
2023-03-13T03:52:37.892Z,3.92
2023-03-13T03:53:19.769Z,6.43
2023-03-13T03:54:01.373Z,5.22
2023-03-13T03:54:45.578Z,3.70
2023-03-13T03:55:28.831Z,3.55
2023-03-13T03:56:10.752Z,4.65
2023-03-13T03:56:57.539Z,4.53
2023-03-13T03:57:39.105Z,3.42
2023-03-13T03:58:24.709Z,4.18
2023-03-13T03:59:23.764Z,4.32
2023-03-13T04:00:14.124Z,7.57
2023-03-13T04:01:00.523Z,3.03
2023-03-13T04:01:43.084Z,5.32
2023-03-13T04:02:24.712Z,3.40
2023-03-13T04:03:06.870Z,7.75
2023-03-13T04:03:48.957Z,3.40
2023-03-13T04:04:31.921Z,3.83
2023-03-13T04:05:18.673Z,4.25
2023-03-13T04:06:00.431Z,4.13
2023-03-13T04:06:42.073Z,4.95
2023-03-13T04:07:24.713Z,3.97
2023-03-13T04:08:07.062Z,4.75
2023-03-13T04:08:48.689Z,5.07
2023-03-13T04:09:35.353Z,8.40
2023-03-13T04:10:18.805Z,3.75
2023-03-13T04:11:01.749Z,4.40
2023-03-13T04:11:45.256Z,5.43
2023-03-13T04:12:27.105Z,4.72
2023-03-13T04:13:10.220Z,4.20
2023-03-13T04:13:52.296Z,4.88
2023-03-13T04:14:33.913Z,6.07
2023-03-13T04:15:19.024Z,4.32
2023-03-13T04:16:00.669Z,4.53
2023-03-13T04:16:42.346Z,3.78
2023-03-13T04:17:24.308Z,4.22
2023-03-13T04:18:06.263Z,5.88
2023-03-13T04:18:48.232Z,3.70
2023-03-13T04:19:31.542Z,4.13
2023-03-13T04:20:14.305Z,3.53
2023-03-13T04:21:03.169Z,3.47
2023-03-13T04:21:47.829Z,4.80
2023-03-13T04:22:32.670Z,4.45
2023-03-13T04:23:14.333Z,5.85
2023-03-13T04:23:56.016Z,4.28
2023-03-13T04:24:38.193Z,5.97
2023-03-13T04:25:20.043Z,3.13
2023-03-13T04:26:03.984Z,3.72
2023-03-13T04:26:46.051Z,3.72
2023-03-13T04:27:29.193Z,3.33
2023-03-13T04:28:11.172Z,3.50
2023-03-13T04:28:58.051Z,4.25
2023-03-13T04:29:54.282Z,3.97
2023-03-13T04:30:51.245Z,4.00
2023-03-13T04:31:56.105Z,3.33
2023-03-13T04:32:51.047Z,5.07
2023-03-13T04:33:47.611Z,4.50
2023-03-13T04:34:49.270Z,3.40
2023-03-13T04:35:59.984Z,2.90
2023-03-13T04:37:07.535Z,2.75
2023-03-13T04:38:12.306Z,5.57
2023-03-13T04:39:05.950Z,4.28
2023-03-13T04:40:07.799Z,2.78
2023-03-13T04:41:18.963Z,4.25
2023-03-13T04:42:18.930Z,4.00
2023-03-13T04:43:10.980Z,5.03
2023-03-13T04:44:12.865Z,3.90
2023-03-13T04:45:12.413Z,2.55
2023-03-13T04:46:02.769Z,3.10
2023-03-13T04:47:18.152Z,2.47
2023-03-13T04:48:09.302Z,2.90
2023-03-13T04:48:50.969Z,2.53
2023-03-13T04:49:52.826Z,2.92
2023-03-13T04:50:56.708Z,3.90
2023-03-13T04:51:45.169Z,2.72
2023-03-13T04:52:49.986Z,1.77
2023-03-13T04:54:00.586Z,3.92
2023-03-13T04:55:05.552Z,1.80
2023-03-13T04:56:41.730Z,2.47
2023-03-13T04:57:42.869Z,1.55
2023-03-13T04:58:43.619Z,1.23
2023-03-13T04:59:41.313Z,2.70
2023-03-13T05:00:41.996Z,1.52
2023-03-13T05:01:46.322Z,2.55
2023-03-13T05:02:46.204Z,2.85
2023-03-13T05:03:42.166Z,2.83
2023-03-13T05:04:31.416Z,2.05
2023-03-13T05:05:28.242Z,0.98
2023-03-13T05:06:18.780Z,1.58
2023-03-13T05:07:18.482Z,1.02
2023-03-13T05:08:25.918Z,2.35
2023-03-13T05:09:27.797Z,1.58
2023-03-13T05:10:27.365Z,1.60
2023-03-13T05:11:27.781Z,0.95
2023-03-13T05:12:09.529Z,1.75
2023-03-13T05:13:14.751Z,0.90
2023-03-13T05:14:25.469Z,0.98
2023-03-13T05:15:21.298Z,0.90
2023-03-13T05:16:03.050Z,0.75
2023-03-13T05:17:02.990Z,0.95
2023-03-13T05:18:23.742Z,1.88
2023-03-13T05:19:34.357Z,0.40
2023-03-13T05:20:36.187Z,1.38
2023-03-13T05:21:28.251Z,1.00
2023-03-13T05:22:20.549Z,0.65
2023-03-13T05:23:24.159Z,1.20
2023-03-13T05:24:40.269Z,0.55
2023-03-13T05:25:37.165Z,1.67
2023-03-13T05:26:37.349Z,0.40
2023-03-13T05:27:34.877Z,1.23
2023-03-13T05:28:49.030Z,0.38
2023-03-13T05:29:54.053Z,1.50
2023-03-13T05:30:54.181Z,1.55
2023-03-13T05:31:54.672Z,0.80
2023-03-13T05:32:55.221Z,0.43
2023-03-13T05:34:02.899Z,1.00
2023-03-13T05:35:03.510Z,0.65
2023-03-13T05:36:15.118Z,0.20
2023-03-13T05:37:03.072Z,1.35
2023-03-13T05:37:59.640Z,0.75
2023-03-13T05:39:13.475Z,1.65
2023-03-13T05:40:04.332Z,0.10
2023-03-13T05:41:03.420Z,0.75
2023-03-13T05:41:58.552Z,1.30
2023-03-13T05:42:54.028Z,2.38
2023-03-13T05:43:55.547Z,2.95
2023-03-13T05:44:48.658Z,0.65
2023-03-13T05:45:49.917Z,0.60
2023-03-13T05:46:51.893Z,0.45
2023-03-13T05:48:02.851Z,1.10
2023-03-13T05:49:03.072Z,1.58
2023-03-13T05:49:58.472Z,0.65
2023-03-13T05:50:48.904Z,0.52
2023-03-13T05:51:48.658Z,0.43
2023-03-13T05:52:49.074Z,0.52
2023-03-13T05:53:42.197Z,0.30
2023-03-13T05:54:31.234Z,0.50
2023-03-13T05:55:27.824Z,0.20
2023-03-13T05:56:29.659Z,0.38
2023-03-13T05:57:43.779Z,0.80
2023-03-13T05:58:36.464Z,0.95
2023-03-13T05:59:38.334Z,1.02
2023-03-13T06:00:35.710Z,0.28
2023-03-13T06:01:49.467Z,0.20
2023-03-13T06:02:41.197Z,0.20
2023-03-13T06:03:25.713Z,0.75
2023-03-13T06:04:09.747Z,0.40
2023-03-13T06:04:53.194Z,0.73
2023-03-13T06:05:35.234Z,0.43
2023-03-13T06:06:20.776Z,0.57
2023-03-13T06:07:06.237Z,0.50
2023-03-13T06:07:50.089Z,0.70
2023-03-13T06:08:32.612Z,1.33
2023-03-13T06:09:14.657Z,0.95
2023-03-13T06:09:56.355Z,0.50
2023-03-13T06:10:38.879Z,0.43
2023-03-13T06:11:20.568Z,0.40
2023-03-13T06:12:02.233Z,3.03
2023-03-13T06:12:44.385Z,0.63
2023-03-13T06:13:28.316Z,1.25
2023-03-13T06:14:12.043Z,1.98
2023-03-13T06:14:58.786Z,0.60
2023-03-13T06:15:55.993Z,0.32
2023-03-13T06:17:07.366Z,0.60
2023-03-13T06:17:49.315Z,0.20
2023-03-13T06:18:31.046Z,0.40
2023-03-13T06:19:12.862Z,0.60
2023-03-13T06:19:54.484Z,0.35
2023-03-13T06:20:36.114Z,0.80
2023-03-13T06:21:17.732Z,1.35
2023-03-13T06:21:59.313Z,1.17
2023-03-13T06:22:41.883Z,0.73
2023-03-13T06:23:23.639Z,1.20
2023-03-13T06:24:05.650Z,1.33
2023-03-13T06:24:49.467Z,1.80
2023-03-13T06:25:31.090Z,0.90
2023-03-13T06:26:12.717Z,0.50
2023-03-13T06:26:54.329Z,0.88
2023-03-13T06:27:35.949Z,0.10
2023-03-13T06:28:17.666Z,1.20
2023-03-13T06:28:59.432Z,0.10
2023-03-13T06:29:41.057Z,0.47
2023-03-13T06:30:22.706Z,1.17
2023-03-13T06:31:06.736Z,0.10
2023-03-13T06:31:48.427Z,0.10
2023-03-13T06:32:30.234Z,1.00
2023-03-13T06:33:12.402Z,0.13
2023-03-13T06:33:54.727Z,0.70
2023-03-13T06:34:36.602Z,0.30
2023-03-13T06:35:18.231Z,0.25
2023-03-13T06:36:03.831Z,0.98
2023-03-13T06:36:45.658Z,0.40
2023-03-13T06:37:27.301Z,0.28
2023-03-13T06:38:10.424Z,0.40
2023-03-13T06:38:52.080Z,0.55
2023-03-13T06:39:34.058Z,0.77
2023-03-13T06:40:15.895Z,0.20
2023-03-13T06:40:58.367Z,0.13
2023-03-13T06:41:40.344Z,0.20
2023-03-13T06:42:22.102Z,0.10
2023-03-13T06:43:03.764Z,0.10
2023-03-13T06:43:45.554Z,0.10
2023-03-13T06:44:27.282Z,0.65
2023-03-13T06:45:09.538Z,0.47
2023-03-13T06:45:51.436Z,0.45
2023-03-13T06:46:33.584Z,0.40
2023-03-13T06:47:15.647Z,0.25
2023-03-13T06:47:57.345Z,0.47
2023-03-13T06:48:38.890Z,0.63
2023-03-13T06:49:20.780Z,0.77
2023-03-13T06:50:02.415Z,0.20
2023-03-13T06:50:44.788Z,0.30
2023-03-13T06:51:26.548Z,0.30
2023-03-13T06:52:08.388Z,0.43
2023-03-13T06:52:50.036Z,0.10
2023-03-13T06:53:31.645Z,0.08
2023-03-13T06:54:13.340Z,0.10
2023-03-13T06:54:55.005Z,0.22
2023-03-13T06:55:36.591Z,0.30
2023-03-13T06:56:18.581Z,0.93
2023-03-13T06:57:00.149Z,0.20
2023-03-13T06:57:41.859Z,0.00
2023-03-13T06:58:32.036Z,1.38
2023-03-13T06:59:14.591Z,2.00
2023-03-13T06:59:56.137Z,1.35
2023-03-13T07:00:39.947Z,1.48
2023-03-13T07:01:21.860Z,0.50
2023-03-13T07:02:03.643Z,1.25
2023-03-13T07:02:45.308Z,0.77
2023-03-13T07:03:27.040Z,0.10
2023-03-13T07:04:12.861Z,0.82
2023-03-13T07:04:54.565Z,0.08
2023-03-13T07:05:36.438Z,0.10
2023-03-13T07:06:18.390Z,0.57
2023-03-13T07:06:59.961Z,1.48
2023-03-13T07:07:42.559Z,0.50
2023-03-13T07:08:25.700Z,0.05
2023-03-13T07:09:07.899Z,0.35
2023-03-13T07:09:49.495Z,0.47
2023-03-13T07:10:31.229Z,0.40
2023-03-13T07:11:14.115Z,0.52
2023-03-13T07:11:57.962Z,0.10
2023-03-13T07:12:39.660Z,1.08
2023-03-13T07:13:22.172Z,0.52
2023-03-13T07:14:15.876Z,0.52
2023-03-13T07:14:58.413Z,0.57
2023-03-13T07:15:40.043Z,0.28
2023-03-13T07:16:21.758Z,0.10
2023-03-13T07:17:03.518Z,0.38
2023-03-13T07:17:45.205Z,0.22
2023-03-13T07:18:27.034Z,0.10
2023-03-13T07:19:08.740Z,0.50
2023-03-13T07:19:50.414Z,0.68
2023-03-13T07:20:32.102Z,0.75
2023-03-13T07:21:14.203Z,0.43
2023-03-13T07:21:57.015Z,1.23
2023-03-13T07:22:38.691Z,0.63
2023-03-13T07:23:20.810Z,0.10
2023-03-13T07:24:02.467Z,0.10
2023-03-13T07:24:44.191Z,2.35
2023-03-13T07:25:25.804Z,0.43
2023-03-13T07:26:12.116Z,1.27
2023-03-13T07:27:04.911Z,0.40
2023-03-13T07:27:51.961Z,0.68
2023-03-13T07:28:37.543Z,0.35
2023-03-13T07:29:19.438Z,0.63
2023-03-13T07:30:01.138Z,0.40
2023-03-13T07:30:42.748Z,0.88
2023-03-13T07:31:24.656Z,0.30
2023-03-13T07:32:06.697Z,0.10
2023-03-13T07:32:48.827Z,0.20
2023-03-13T07:33:30.554Z,0.30
2023-03-13T07:34:12.144Z,1.00
2023-03-13T07:34:53.745Z,0.05
2023-03-13T07:35:35.442Z,0.10
2023-03-13T07:36:17.139Z,0.30
2023-03-13T07:36:58.819Z,0.25
2023-03-13T07:37:40.819Z,0.10
2023-03-13T07:38:22.452Z,0.50
2023-03-13T07:39:04.081Z,0.35
2023-03-13T07:39:45.670Z,0.20
2023-03-13T07:40:27.499Z,0.30
2023-03-13T07:41:11.914Z,0.20
2023-03-13T07:41:53.569Z,1.45
2023-03-13T07:42:35.501Z,0.10
2023-03-13T07:43:17.950Z,0.70
2023-03-13T07:43:59.571Z,0.10
2023-03-13T07:44:41.207Z,0.10
2023-03-13T07:45:22.798Z,1.02
2023-03-13T07:46:06.628Z,0.93
2023-03-13T07:46:50.046Z,1.92
2023-03-13T07:47:34.205Z,0.32
2023-03-13T07:48:15.829Z,0.40
2023-03-13T07:48:57.626Z,0.45
2023-03-13T07:49:42.661Z,0.45
2023-03-13T07:50:24.342Z,0.13
2023-03-13T07:51:10.980Z,0.15
2023-03-13T07:51:52.683Z,0.50
2023-03-13T07:52:34.295Z,0.70
2023-03-13T07:53:21.074Z,0.50
2023-03-13T07:54:02.771Z,2.30
2023-03-13T07:54:44.338Z,0.75
2023-03-13T07:55:25.971Z,0.90
2023-03-13T07:56:11.812Z,0.17
2023-03-13T07:56:53.470Z,0.20
2023-03-13T07:57:35.134Z,0.52
2023-03-13T07:58:16.699Z,0.68
2023-03-13T07:58:58.334Z,0.10
2023-03-13T07:59:39.977Z,0.45
2023-03-13T08:00:22.148Z,0.20
2023-03-13T08:01:15.549Z,0.13
2023-03-13T08:01:57.205Z,0.52
2023-03-13T08:02:38.981Z,0.10
2023-03-13T08:03:21.810Z,0.25
2023-03-13T08:04:04.182Z,0.68
2023-03-13T08:04:45.931Z,0.75
2023-03-13T08:05:27.605Z,0.30
2023-03-13T08:06:11.490Z,0.98
2023-03-13T08:06:54.556Z,0.13
2023-03-13T08:07:36.237Z,0.50
2023-03-13T08:08:17.877Z,1.35
2023-03-13T08:08:59.542Z,0.20
2023-03-13T08:09:41.420Z,0.20
2023-03-13T08:10:23.013Z,0.35
2023-03-13T08:11:07.711Z,0.10
2023-03-13T08:11:49.401Z,0.57
2023-03-13T08:12:31.011Z,0.30
2023-03-13T08:13:12.808Z,0.30
2023-03-13T08:13:55.595Z,0.10
2023-03-13T08:14:37.210Z,0.10
2023-03-13T08:15:23.504Z,0.38
2023-03-13T08:16:22.579Z,0.20
2023-03-13T08:17:04.255Z,0.20
2023-03-13T08:17:45.993Z,0.70
2023-03-13T08:18:27.937Z,0.43
2023-03-13T08:19:10.175Z,0.30
2023-03-13T08:19:51.733Z,0.73
2023-03-13T08:20:33.314Z,0.70
2023-03-13T08:21:17.506Z,0.65
2023-03-13T08:21:59.183Z,0.10
2023-03-13T08:22:40.793Z,0.85
2023-03-13T08:23:22.452Z,1.20
2023-03-13T08:24:07.332Z,1.35
2023-03-13T08:24:49.125Z,0.20
2023-03-13T08:25:32.011Z,0.60
2023-03-13T08:26:18.716Z,0.20
2023-03-13T08:27:00.360Z,0.50
2023-03-13T08:27:41.995Z,0.85
2023-03-13T08:28:23.638Z,1.05
2023-03-13T08:29:13.199Z,0.20
2023-03-13T08:29:54.868Z,0.35
2023-03-13T08:30:36.515Z,0.20
2023-03-13T08:31:24.040Z,0.20
2023-03-13T08:32:05.926Z,0.70
2023-03-13T08:32:47.575Z,0.90
2023-03-13T08:33:29.189Z,1.35
2023-03-13T08:34:14.986Z,0.40
2023-03-13T08:34:56.813Z,1.00
2023-03-13T08:35:38.570Z,0.20
2023-03-13T08:36:26.031Z,1.15
2023-03-13T08:37:07.612Z,1.85
2023-03-13T08:37:49.212Z,0.32
2023-03-13T08:38:31.357Z,0.98
2023-03-13T08:39:15.538Z,0.70
2023-03-13T08:39:57.263Z,1.75
2023-03-13T08:40:38.900Z,1.02
2023-03-13T08:41:26.095Z,0.52
2023-03-13T08:42:11.487Z,0.10
2023-03-13T08:42:54.266Z,0.40
2023-03-13T08:43:36.178Z,0.10
2023-03-13T08:44:19.994Z,0.32
2023-03-13T08:45:01.673Z,0.50
2023-03-13T08:45:43.498Z,0.20
2023-03-13T08:46:25.725Z,1.42
2023-03-13T08:47:08.538Z,0.15
2023-03-13T08:47:53.571Z,0.57
2023-03-13T08:48:35.520Z,0.10
2023-03-13T08:49:17.679Z,1.17
2023-03-13T08:49:59.482Z,0.22
2023-03-13T08:50:41.132Z,0.50
2023-03-13T08:51:25.125Z,0.43
2023-03-13T08:52:07.867Z,0.10
2023-03-13T08:52:49.610Z,0.55
2023-03-13T08:53:32.180Z,0.28
2023-03-13T08:54:13.862Z,0.40
2023-03-13T08:54:55.555Z,0.50
2023-03-13T08:55:37.233Z,0.20
2023-03-13T08:56:21.723Z,0.20
2023-03-13T08:57:03.787Z,0.40
2023-03-13T08:57:45.403Z,0.32
2023-03-13T08:58:27.266Z,0.20
2023-03-13T08:59:08.979Z,0.60
2023-03-13T08:59:51.420Z,0.52
2023-03-13T09:00:33.160Z,0.40
2023-03-13T09:01:15.638Z,0.15
2023-03-13T09:01:57.384Z,0.10
2023-03-13T09:02:39.113Z,0.95
2023-03-13T09:03:21.064Z,0.57
2023-03-13T09:04:04.905Z,0.50
2023-03-13T09:04:48.542Z,0.30
2023-03-13T09:05:30.147Z,0.20
2023-03-13T09:06:12.430Z,0.17
2023-03-13T09:06:54.169Z,0.47
2023-03-13T09:07:35.796Z,0.85
2023-03-13T09:08:17.405Z,0.45
2023-03-13T09:08:59.229Z,0.10
2023-03-13T09:09:40.950Z,0.52
2023-03-13T09:10:23.924Z,0.52
2023-03-13T09:11:12.130Z,0.52
2023-03-13T09:11:53.683Z,1.25
2023-03-13T09:12:35.306Z,0.20
2023-03-13T09:13:16.895Z,0.50
2023-03-13T09:14:01.435Z,0.43
2023-03-13T09:14:43.036Z,0.10
2023-03-13T09:15:24.709Z,0.75
2023-03-13T09:16:13.293Z,0.40
2023-03-13T09:16:56.296Z,0.15
2023-03-13T09:17:37.925Z,0.45
2023-03-13T09:18:19.732Z,0.68
2023-03-13T09:19:01.675Z,0.63
2023-03-13T09:19:57.630Z,0.43
2023-03-13T09:20:43.550Z,0.20
2023-03-13T09:21:31.323Z,1.10
2023-03-13T09:22:13.009Z,0.60
2023-03-13T09:22:54.665Z,0.20
2023-03-13T09:23:36.512Z,0.68
2023-03-13T09:24:18.250Z,0.70
2023-03-13T09:24:59.901Z,0.10
2023-03-13T09:25:41.534Z,0.90
2023-03-13T09:26:24.114Z,1.77
2023-03-13T09:27:05.869Z,0.20
2023-03-13T09:27:47.514Z,0.47
2023-03-13T09:28:29.110Z,0.40
2023-03-13T09:29:10.695Z,1.10
2023-03-13T09:29:52.405Z,0.13
2023-03-13T09:30:34.046Z,1.20
2023-03-13T09:31:18.343Z,0.68
2023-03-13T09:31:59.930Z,0.40
2023-03-13T09:32:41.575Z,0.50
2023-03-13T09:33:24.219Z,3.40
2023-03-13T09:34:05.937Z,0.25
2023-03-13T09:34:47.669Z,0.20
2023-03-13T09:35:29.242Z,1.30
2023-03-13T09:36:11.684Z,0.38
2023-03-13T09:36:53.315Z,0.47
2023-03-13T09:37:34.913Z,2.13
2023-03-13T09:38:18.085Z,0.75
2023-03-13T09:39:00.703Z,1.08
2023-03-13T09:39:42.364Z,0.43
2023-03-13T09:40:26.389Z,1.17
2023-03-13T09:41:17.210Z,1.00
2023-03-13T09:42:01.812Z,1.85
2023-03-13T09:42:53.365Z,0.20
2023-03-13T09:43:46.640Z,0.52
2023-03-13T09:44:40.534Z,0.40
2023-03-13T09:45:31.183Z,0.38
2023-03-13T09:46:25.898Z,0.50
2023-03-13T09:47:30.186Z,0.73
2023-03-13T09:48:58.533Z,0.90
2023-03-13T09:49:51.103Z,0.73
2023-03-13T09:50:46.374Z,1.13
2023-03-13T09:51:36.718Z,0.40
2023-03-13T09:52:23.096Z,2.28
2023-03-13T09:53:14.750Z,0.65
2023-03-13T09:54:05.722Z,0.30
2023-03-13T09:54:56.214Z,2.58
2023-03-13T09:55:38.506Z,1.60
2023-03-13T09:56:24.885Z,1.35
2023-03-13T09:57:34.857Z,1.55
2023-03-13T09:58:25.888Z,1.58
2023-03-13T09:59:22.322Z,0.45
2023-03-13T10:00:16.320Z,0.52
2023-03-13T10:01:02.210Z,2.88
2023-03-13T10:01:44.373Z,1.83
2023-03-13T10:02:35.003Z,0.88
2023-03-13T10:03:35.399Z,0.77
2023-03-13T10:04:42.750Z,2.45
2023-03-13T10:05:27.342Z,1.45
2023-03-13T10:06:18.845Z,1.35
2023-03-13T10:07:00.505Z,0.50
2023-03-13T10:07:42.561Z,0.50
2023-03-13T10:08:26.737Z,1.20
2023-03-13T10:09:17.493Z,1.35
2023-03-13T10:10:01.902Z,1.63
2023-03-13T10:10:58.872Z,1.17
2023-03-13T10:11:55.585Z,0.32
2023-03-13T10:12:43.888Z,2.25